Aeroporto :
LOGIN :

Iscrizione | Disclaimer

   EN    FR    IT 

 










Sommario :    VFR   VFR Marginale   IFR   IFR Intensivo   IFR Molto Intensivo
Visibilità : 
Base nubi : 
>= 8 km
>= 3000ft
5 / 8 km
1000 / 3000 ft
1500m / 5 km
500 / 1000 ft
800 / 1500m
200 / 500 ft
< 800m
< 200 ft
Simboli :   Temporali  Nebbia  Neve Forte  Precipitazioni Forti  Vento > 20 kt
SIGMETs :   Varie  Temporali  Ghiacco  Turbolenza  Onda orograficha  Ceneri Vulcaniche






- Altitudine del aeroporto : 46 ft
- Codice IATA : GPA


LGRX - Araxos

ULTIMO METAR :
  • 070050Z 00000KT 9999 FEW020 10/10 Q1021 RMK FEW080 BLU

METARs OBSOLETI :
  • 062350Z 00000KT 9999 FEW020 09/09 Q1022 RMK FEW080 BLU
  • 062250Z 00000KT 9999 FEW020 10/10 Q1022 RMK FEW080 BLU

TAF TAF LGRX
Valido dal 07 a 00 ore il 07 a 09 ore UTC


062300Z 0700/0709 22007KT 9999 SCT025 SCT080
PROB30
TEMPO 0703/0709 6000 RA BKN025 BKN080



MetMap, La meteo Aeronautica in un colpo d'occhio ! - Copyright ORBIFLY Dicembre 2007 - Disclaimer

ORBIFLY MET'MAP TEAM :

Programmazione e sviluppo : Alexandra Zaïnal
Concezione : Baudouin d'Aumeries
Aiuto per la programmazione : Marc-Olivier Méhu
Supporto tecnico e logistico : Manuel Goepfert
Aiuto per la traduzione : Arnaldo La Scala

Contatto : metmap@orbifly.com




FONTI E CREDITI :

   NOAA